Tous les Résultats et les Classements des Compétitions E.S.F.

CASALINO GIANI M. - 2002 - CAD

Points Ski Open

Classement National

16660 / 144785

Mes 4 dernières courses

ESF VAL CENIS : Flèche du 23/02/2018 16ième VE
ESF VAL CENIS : Chamois du 22/02/2018 15ième VE
ESF VAL CENIS : Flèche du 21/02/2018 ABD
ESF VAL CENIS : Chamois du 02/03/2017 14ième VE

Disciplines pratiquées

Résultats SKIOPEN (Flèche - Chamois - Fusée)

Bilan SkiOpen au 01/04/2020 à 00h26

Nom - Prénom Code Sexe An Pts Scratch Clt/Categ
CASALINO GIANI       ESF1366800439 M 2002 24.30 16660/144785 1865/9480 - CAD
(ESF1366800439) Classement par Nation 16250/141298 - FRA 1802/9256 - CAD - FRA
Classement par Département 662/1732 - Dept.38 87/169 - CAD - Dept.38

Palmarès

Epreuve Disc. Etat Saison Temps Pts Médaille Clt  
ESF VAL CENIS : Flèche du 23/02/2018 F P1 2018 41.30 22.66 Vermeil 16
ESF VAL CENIS : Chamois du 22/02/2018 C P2 2018 41.63 25.93 Vermeil 15
ESF VAL CENIS : Flèche du 21/02/2018 F skiopen 2018 ABD 133
ESF VAL CENIS : Chamois du 02/03/2017 C 2017 39.31 26.71 Vermeil 14
ESF VAL CENIS : Flèche du 01/03/2017 F 2017 45.00 18.42 Vermeil 15
ESF VAL CENIS : Flèche du 24/02/2017 F 2017 39.85 22.62 Vermeil 12
ESF VAL CENIS : Chamois du 23/02/2017 C 2017 40.87 36.27 Argent 12
ESF VAL CENIS : Flèche du 22/02/2017 F 2017 42.68 18.59 Vermeil 14
ESF VAL CENIS : Flèche du 30/12/2016 F 2017 38.43 19.53 Vermeil 21
ESF VAL CENIS : Flèche du 23/12/2016 F 2017 39.53 23.53 Vermeil 23
ESF VAL CENIS : Chamois du 22/12/2016 à 12h30 C 2017 47.02 35.07 Argent 13
ESF VAL CENIS : Chamois du 22/12/2016 C 2017 46.76 33.98 Argent 13
ESF VAL CENIS : Flèche du 21/12/2016 F 2017 40.84 18.07 Vermeil 9
ESF VAL CENIS : Flèche du 21/12/2016 à 12h30 F 2017 40.88 15.48 Vermeil 9
ESF VAL CENIS : Flèche du 15/04/2016 F 2016 39.48 27.15 Vermeil 5
ESF VAL CENIS : Flèche du 15/04/2016 F 2016 39.08 25.50 Vermeil 4
ESF VAL CENIS : Chamois du 14/04/2016 C 2016 45.99 33.84 Argent 4
ESF VAL CENIS : Chamois du 14/04/2016 C 2016 45.46 37.05 Argent 3
ESF VAL CENIS : Flèche du 26/02/2016 F 2016 44.08 30.57 Argent 39
ESF VAL CENIS : Chamois du 25/02/2016 C 2016 51.40 42.97 Argent 25
ESF VAL CENIS : Flèche du 24/02/2016 F 2016 46.21 22.28 Vermeil 22
ESF VAL CENIS : Flèche du 19/02/2016 F 2016 44.06 23.76 Vermeil 30
ESF VAL CENIS : Chamois du 18/02/2016 C 2016 51.03 46.54 Bronze 28
ESF VAL CENIS : Flèche du 17/02/2016 F 2016 ABD 92
ESF VAL CENIS : Flèche du 20/02/2015 F 2015 41.70 35.92 Argent 18
ESF VAL CENIS : Flèche du 13/02/2015 à 14h15 F 2015 43.22 26.86 Vermeil 19
ESF VAL CENIS : Chamois du 12/02/2015 à 14h15 C 2015 53.92 52.44 Bronze 25
ESF VAL CENIS : Flèche du 11/02/2015 F 2015 42.51 28.86 Argent 16
ESF VAL CENIS : Flèche du 02/01/2015 F 2015 46.37 30.44 Argent 26
ESF VAL CENIS : Chamois du 01/01/2015 C 2015 ABS 67
ESF VAL CENIS : Flèche du 31/12/2014 F 2015 ABD 75
ESF VAL CENIS : Flèche du 14/03/2014 à 14h15 F 2014 45.97 35.13 Argent 29
ESF VAL CENIS : Chamois du 13/03/2014 à 14h15 C 2014 55.50 47.58 Bronze 19
ESF VAL CENIS : Flèche du 12/03/2014 F 2014 46.09 34.06 Argent 30
ESF VAL CENIS : Flèche du 07/03/2014 F 2014 46.25 35.19 Argent 32
ESF VAL CENIS : Chamois du 06/03/2014 à 14h15 C 2014 56.96 52.12 Bronze 40
ESF VAL CENIS : Flèche du 05/03/2014 à 14h15 F 2014 ABS 98
ESF VAL CENIS : Flèche du 03/01/2014 à 12h15 F 2014 52.13 54.32 Fléchette 65
ESF VAL CENIS : Chamois du 02/01/2014 à 12h15 C 2014 57.16 46.08 Bronze 41
ESF VAL CENIS : Flèche du 01/01/2014 à 12h15 F 2014 47.59 44.47 Bronze 45
ESF VAL CENIS : Flèche du 08/03/2013 à 14h15 F 2013 1:02.38 50.53 Fléchette 100
ESF VAL CENIS : Chamois du 07/03/2013 à 14h15 C 2013 1:00.18 65.89 49
ESF VAL CENIS : Flèche du 06/03/2013 à 14h15 F 2013 55.16 48.48 Bronze 49
 Epreuve validée par le service technique du S.N.M.S.F. P1 Performance N°1
 Epreuve non validée par le service technique du S.N.M.S.F. P2 Performance N°2
  En attente de validation ou d’informations complémentaires de l’esf organisatrice.
 Epreuve antérieure au 1er Décembre 2017, ne comptant plus pour le classement SKIOPEN.
 Autre discipline validée (ne comptant pas pour le classement SKIOPEN).